sensor_id;sensor_type;location;lat;lon;timestamp;temperature;humidity
1702;DHT22;848;48.354;10.064;2023-12-14T00:00:05;6.30;99.90
1702;DHT22;848;48.354;10.064;2023-12-14T00:02:33;6.20;99.90
1702;DHT22;848;48.354;10.064;2023-12-14T00:05:01;6.30;99.90
1702;DHT22;848;48.354;10.064;2023-12-14T00:07:28;6.20;99.90
1702;DHT22;848;48.354;10.064;2023-12-14T00:09:55;6.30;99.90
1702;DHT22;848;48.354;10.064;2023-12-14T00:12:23;6.30;99.90
1702;DHT22;848;48.354;10.064;2023-12-14T00:14:50;6.30;99.90
1702;DHT22;848;48.354;10.064;2023-12-14T00:17:17;6.30;99.90
1702;DHT22;848;48.354;10.064;2023-12-14T00:19:43;6.40;99.90
1702;DHT22;848;48.354;10.064;2023-12-14T00:22:12;6.40;99.90
1702;DHT22;848;48.354;10.064;2023-12-14T00:24:39;6.40;99.90
1702;DHT22;848;48.354;10.064;2023-12-14T00:27:06;6.50;99.90
1702;DHT22;848;48.354;10.064;2023-12-14T00:29:33;6.60;99.90
1702;DHT22;848;48.354;10.064;2023-12-14T00:31:59;6.60;99.90
1702;DHT22;848;48.354;10.064;2023-12-14T00:34:26;6.70;99.90
1702;DHT22;848;48.354;10.064;2023-12-14T00:36:53;6.70;99.90
1702;DHT22;848;48.354;10.064;2023-12-14T00:39:21;6.60;99.90
1702;DHT22;848;48.354;10.064;2023-12-14T00:41:48;6.70;99.90
1702;DHT22;848;48.354;10.064;2023-12-14T00:44:15;6.60;99.90
1702;DHT22;848;48.354;10.064;2023-12-14T00:46:42;6.60;99.90
1702;DHT22;848;48.354;10.064;2023-12-14T00:49:09;6.70;99.90
1702;DHT22;848;48.354;10.064;2023-12-14T00:51:36;6.70;99.90
1702;DHT22;848;48.354;10.064;2023-12-14T00:54:03;6.70;99.90
1702;DHT22;848;48.354;10.064;2023-12-14T00:56:31;6.70;99.90
1702;DHT22;848;48.354;10.064;2023-12-14T00:58:58;6.70;99.90
1702;DHT22;848;48.354;10.064;2023-12-14T01:01:25;6.80;99.90
1702;DHT22;848;48.354;10.064;2023-12-14T01:03:52;6.90;99.90
1702;DHT22;848;48.354;10.064;2023-12-14T01:06:19;6.90;99.90
1702;DHT22;848;48.354;10.064;2023-12-14T01:08:46;6.90;99.90
1702;DHT22;848;48.354;10.064;2023-12-14T01:11:13;7.00;99.90
1702;DHT22;848;48.354;10.064;2023-12-14T01:13:41;6.90;99.90
1702;DHT22;848;48.354;10.064;2023-12-14T01:16:08;6.90;99.90
1702;DHT22;848;48.354;10.064;2023-12-14T01:18:35;6.90;99.90
1702;DHT22;848;48.354;10.064;2023-12-14T01:21:02;6.90;99.90
1702;DHT22;848;48.354;10.064;2023-12-14T01:23:29;6.90;99.90
1702;DHT22;848;48.354;10.064;2023-12-14T01:25:56;6.80;99.90
1702;DHT22;848;48.354;10.064;2023-12-14T01:28:23;6.80;99.90
1702;DHT22;848;48.354;10.064;2023-12-14T01:30:52;6.80;99.90
1702;DHT22;848;48.354;10.064;2023-12-14T01:33:19;6.90;99.90
1702;DHT22;848;48.354;10.064;2023-12-14T01:35:46;6.90;99.90
1702;DHT22;848;48.354;10.064;2023-12-14T01:38:13;6.90;99.90
1702;DHT22;848;48.354;10.064;2023-12-14T01:40:40;7.00;99.90
1702;DHT22;848;48.354;10.064;2023-12-14T01:43:08;6.90;99.90
1702;DHT22;848;48.354;10.064;2023-12-14T01:45:36;6.90;99.90
1702;DHT22;848;48.354;10.064;2023-12-14T01:48:04;7.00;99.90
1702;DHT22;848;48.354;10.064;2023-12-14T01:50:31;7.00;99.90
1702;DHT22;848;48.354;10.064;2023-12-14T01:52:58;7.00;99.90
1702;DHT22;848;48.354;10.064;2023-12-14T01:55:25;7.00;99.90
1702;DHT22;848;48.354;10.064;2023-12-14T01:57:53;7.10;99.90
1702;DHT22;848;48.354;10.064;2023-12-14T02:00:26;7.00;99.90
1702;DHT22;848;48.354;10.064;2023-12-14T02:02:54;7.00;99.90
1702;DHT22;848;48.354;10.064;2023-12-14T02:05:22;7.20;99.90
1702;DHT22;848;48.354;10.064;2023-12-14T02:07:49;7.10;99.90
1702;DHT22;848;48.354;10.064;2023-12-14T02:10:16;7.10;99.90
1702;DHT22;848;48.354;10.064;2023-12-14T02:12:43;7.30;99.90
1702;DHT22;848;48.354;10.064;2023-12-14T02:15:10;7.10;99.90
1702;DHT22;848;48.354;10.064;2023-12-14T02:17:37;7.20;99.90
1702;DHT22;848;48.354;10.064;2023-12-14T02:20:05;7.20;99.90
1702;DHT22;848;48.354;10.064;2023-12-14T02:22:47;7.20;99.90
1702;DHT22;848;48.354;10.064;2023-12-14T02:25:14;7.20;99.90
1702;DHT22;848;48.354;10.064;2023-12-14T02:27:41;7.10;99.90
1702;DHT22;848;48.354;10.064;2023-12-14T02:30:09;7.20;99.90
1702;DHT22;848;48.354;10.064;2023-12-14T02:32:36;7.20;99.90
1702;DHT22;848;48.354;10.064;2023-12-14T02:35:03;7.20;99.90
1702;DHT22;848;48.354;10.064;2023-12-14T02:37:30;7.20;99.90
1702;DHT22;848;48.354;10.064;2023-12-14T02:39:59;7.10;99.90
1702;DHT22;848;48.354;10.064;2023-12-14T02:42:26;7.10;99.90
1702;DHT22;848;48.354;10.064;2023-12-14T02:44:53;7.00;99.90
1702;DHT22;848;48.354;10.064;2023-12-14T02:47:20;7.10;99.90
1702;DHT22;848;48.354;10.064;2023-12-14T02:49:47;7.20;99.90
1702;DHT22;848;48.354;10.064;2023-12-14T02:52:14;7.00;99.90
1702;DHT22;848;48.354;10.064;2023-12-14T02:54:41;7.20;99.90
1702;DHT22;848;48.354;10.064;2023-12-14T02:57:09;7.20;99.90
1702;DHT22;848;48.354;10.064;2023-12-14T02:59:36;7.10;99.90
1702;DHT22;848;48.354;10.064;2023-12-14T03:02:03;7.10;99.90
1702;DHT22;848;48.354;10.064;2023-12-14T03:04:30;7.10;99.90
1702;DHT22;848;48.354;10.064;2023-12-14T03:06:57;7.20;99.90
1702;DHT22;848;48.354;10.064;2023-12-14T03:09:27;7.20;99.90
1702;DHT22;848;48.354;10.064;2023-12-14T03:11:54;7.10;99.90
1702;DHT22;848;48.354;10.064;2023-12-14T03:14:22;7.10;99.90
1702;DHT22;848;48.354;10.064;2023-12-14T03:16:49;7.10;99.90
1702;DHT22;848;48.354;10.064;2023-12-14T03:19:16;7.10;99.90
1702;DHT22;848;48.354;10.064;2023-12-14T03:22:13;7.20;99.90
1702;DHT22;848;48.354;10.064;2023-12-14T03:24:40;7.00;99.90
1702;DHT22;848;48.354;10.064;2023-12-14T03:27:07;6.90;99.90
1702;DHT22;848;48.354;10.064;2023-12-14T03:29:34;6.90;99.90
1702;DHT22;848;48.354;10.064;2023-12-14T03:32:00;6.90;99.90
1702;DHT22;848;48.354;10.064;2023-12-14T03:34:27;6.70;99.90
1702;DHT22;848;48.354;10.064;2023-12-14T03:36:54;6.70;99.90
1702;DHT22;848;48.354;10.064;2023-12-14T03:39:22;6.60;99.90
1702;DHT22;848;48.354;10.064;2023-12-14T03:41:49;6.60;99.90
1702;DHT22;848;48.354;10.064;2023-12-14T03:44:16;6.50;99.90
1702;DHT22;848;48.354;10.064;2023-12-14T03:46:43;6.30;99.90
1702;DHT22;848;48.354;10.064;2023-12-14T03:49:10;6.30;99.90
1702;DHT22;848;48.354;10.064;2023-12-14T03:51:37;6.40;99.90
1702;DHT22;848;48.354;10.064;2023-12-14T03:54:04;6.40;99.90
1702;DHT22;848;48.354;10.064;2023-12-14T03:56:32;6.50;99.90
1702;DHT22;848;48.354;10.064;2023-12-14T03:58:59;6.50;99.90
1702;DHT22;848;48.354;10.064;2023-12-14T04:01:25;6.50;99.90
1702;DHT22;848;48.354;10.064;2023-12-14T04:03:52;6.70;99.90
1702;DHT22;848;48.354;10.064;2023-12-14T04:06:19;6.60;99.90
1702;DHT22;848;48.354;10.064;2023-12-14T04:08:46;6.70;99.90
1702;DHT22;848;48.354;10.064;2023-12-14T04:11:13;6.60;99.90
1702;DHT22;848;48.354;10.064;2023-12-14T04:13:41;6.70;99.90
1702;DHT22;848;48.354;10.064;2023-12-14T04:16:08;6.70;99.90
1702;DHT22;848;48.354;10.064;2023-12-14T04:18:35;6.70;99.90
1702;DHT22;848;48.354;10.064;2023-12-14T04:21:04;6.80;99.90
1702;DHT22;848;48.354;10.064;2023-12-14T04:23:30;6.80;99.90
1702;DHT22;848;48.354;10.064;2023-12-14T04:25:57;6.80;99.90
1702;DHT22;848;48.354;10.064;2023-12-14T04:28:24;6.80;99.90
1702;DHT22;848;48.354;10.064;2023-12-14T04:30:52;6.80;99.90
1702;DHT22;848;48.354;10.064;2023-12-14T04:33:19;6.80;99.90
1702;DHT22;848;48.354;10.064;2023-12-14T04:35:46;6.90;99.90
1702;DHT22;848;48.354;10.064;2023-12-14T04:38:13;6.80;99.90
1702;DHT22;848;48.354;10.064;2023-12-14T04:40:40;6.80;99.90
1702;DHT22;848;48.354;10.064;2023-12-14T04:43:07;6.80;99.90
1702;DHT22;848;48.354;10.064;2023-12-14T04:45:33;6.70;99.90
1702;DHT22;848;48.354;10.064;2023-12-14T04:48:02;6.70;99.90
1702;DHT22;848;48.354;10.064;2023-12-14T04:50:29;6.70;99.90
1702;DHT22;848;48.354;10.064;2023-12-14T04:52:56;6.70;99.90
1702;DHT22;848;48.354;10.064;2023-12-14T04:55:22;6.80;99.90
1702;DHT22;848;48.354;10.064;2023-12-14T04:57:49;6.80;99.90
1702;DHT22;848;48.354;10.064;2023-12-14T05:00:16;6.90;99.90
1702;DHT22;848;48.354;10.064;2023-12-14T05:02:46;6.90;99.90
1702;DHT22;848;48.354;10.064;2023-12-14T05:05:16;7.00;99.90
1702;DHT22;848;48.354;10.064;2023-12-14T05:07:43;6.90;99.90
1702;DHT22;848;48.354;10.064;2023-12-14T05:10:09;7.00;99.90
1702;DHT22;848;48.354;10.064;2023-12-14T05:12:37;7.10;99.90
1702;DHT22;848;48.354;10.064;2023-12-14T05:15:05;7.00;99.90
1702;DHT22;848;48.354;10.064;2023-12-14T05:17:32;7.00;99.90
1702;DHT22;848;48.354;10.064;2023-12-14T05:20:00;7.00;99.90
1702;DHT22;848;48.354;10.064;2023-12-14T05:22:29;7.00;99.90
1702;DHT22;848;48.354;10.064;2023-12-14T05:24:56;7.10;99.90
1702;DHT22;848;48.354;10.064;2023-12-14T05:27:23;7.10;99.90
1702;DHT22;848;48.354;10.064;2023-12-14T05:29:50;7.20;99.90
1702;DHT22;848;48.354;10.064;2023-12-14T05:32:17;6.90;99.90
1702;DHT22;848;48.354;10.064;2023-12-14T05:34:44;7.00;99.90
1702;DHT22;848;48.354;10.064;2023-12-14T05:37:10;7.00;99.90
1702;DHT22;848;48.354;10.064;2023-12-14T05:39:41;7.10;99.90
1702;DHT22;848;48.354;10.064;2023-12-14T05:42:08;7.10;99.90
1702;DHT22;848;48.354;10.064;2023-12-14T05:44:35;7.10;99.90
1702;DHT22;848;48.354;10.064;2023-12-14T05:47:02;7.10;99.90
1702;DHT22;848;48.354;10.064;2023-12-14T05:49:29;7.10;99.90
1702;DHT22;848;48.354;10.064;2023-12-14T05:51:58;7.10;99.90
1702;DHT22;848;48.354;10.064;2023-12-14T05:54:25;7.10;99.90
1702;DHT22;848;48.354;10.064;2023-12-14T05:56:53;7.10;99.90
1702;DHT22;848;48.354;10.064;2023-12-14T05:59:20;7.10;99.90
1702;DHT22;848;48.354;10.064;2023-12-14T06:01:47;7.00;99.90
1702;DHT22;848;48.354;10.064;2023-12-14T06:04:14;7.00;99.90
1702;DHT22;848;48.354;10.064;2023-12-14T06:06:41;7.10;99.90
1702;DHT22;848;48.354;10.064;2023-12-14T06:09:08;7.10;99.90
1702;DHT22;848;48.354;10.064;2023-12-14T06:11:35;7.10;99.90
1702;DHT22;848;48.354;10.064;2023-12-14T06:14:03;7.20;99.90
1702;DHT22;848;48.354;10.064;2023-12-14T06:16:30;7.10;99.90
1702;DHT22;848;48.354;10.064;2023-12-14T06:18:57;7.10;99.90
1702;DHT22;848;48.354;10.064;2023-12-14T06:21:24;7.30;99.90
1702;DHT22;848;48.354;10.064;2023-12-14T06:23:54;7.10;99.90
1702;DHT22;848;48.354;10.064;2023-12-14T06:26:21;7.10;99.90
1702;DHT22;848;48.354;10.064;2023-12-14T06:28:48;7.00;99.90
1702;DHT22;848;48.354;10.064;2023-12-14T06:31:17;7.00;99.90
1702;DHT22;848;48.354;10.064;2023-12-14T06:33:47;7.00;99.90
1702;DHT22;848;48.354;10.064;2023-12-14T06:36:15;7.00;99.90
1702;DHT22;848;48.354;10.064;2023-12-14T06:38:42;7.10;99.90
1702;DHT22;848;48.354;10.064;2023-12-14T06:41:18;7.10;99.90
1702;DHT22;848;48.354;10.064;2023-12-14T06:43:45;7.10;99.90
1702;DHT22;848;48.354;10.064;2023-12-14T06:46:12;7.10;99.90
1702;DHT22;848;48.354;10.064;2023-12-14T06:48:40;7.10;99.90
1702;DHT22;848;48.354;10.064;2023-12-14T06:51:07;7.10;99.90
1702;DHT22;848;48.354;10.064;2023-12-14T06:53:34;7.10;99.90
1702;DHT22;848;48.354;10.064;2023-12-14T06:56:03;7.10;99.90
1702;DHT22;848;48.354;10.064;2023-12-14T06:58:30;7.10;99.90
1702;DHT22;848;48.354;10.064;2023-12-14T07:00:57;7.10;99.90
1702;DHT22;848;48.354;10.064;2023-12-14T07:03:24;7.10;99.90
1702;DHT22;848;48.354;10.064;2023-12-14T07:05:52;7.20;99.90
1702;DHT22;848;48.354;10.064;2023-12-14T07:08:19;7.00;99.90
1702;DHT22;848;48.354;10.064;2023-12-14T07:10:46;7.00;99.90
1702;DHT22;848;48.354;10.064;2023-12-14T07:13:12;6.90;99.90
1702;DHT22;848;48.354;10.064;2023-12-14T07:15:39;6.90;99.90
1702;DHT22;848;48.354;10.064;2023-12-14T07:18:06;6.90;99.90
1702;DHT22;848;48.354;10.064;2023-12-14T07:20:33;6.90;99.90
1702;DHT22;848;48.354;10.064;2023-12-14T07:23:01;6.90;99.90
1702;DHT22;848;48.354;10.064;2023-12-14T07:25:28;6.90;99.90
1702;DHT22;848;48.354;10.064;2023-12-14T07:27:55;6.90;99.90
1702;DHT22;848;48.354;10.064;2023-12-14T07:30:22;6.90;99.90
1702;DHT22;848;48.354;10.064;2023-12-14T07:32:50;6.90;99.90
1702;DHT22;848;48.354;10.064;2023-12-14T07:35:17;7.00;99.90
1702;DHT22;848;48.354;10.064;2023-12-14T07:37:44;7.10;99.90
1702;DHT22;848;48.354;10.064;2023-12-14T07:40:13;7.00;99.90
1702;DHT22;848;48.354;10.064;2023-12-14T07:42:40;7.00;99.90
1702;DHT22;848;48.354;10.064;2023-12-14T07:45:07;7.00;99.90
1702;DHT22;848;48.354;10.064;2023-12-14T07:47:35;7.00;99.90
1702;DHT22;848;48.354;10.064;2023-12-14T07:50:02;7.00;99.90
1702;DHT22;848;48.354;10.064;2023-12-14T07:52:29;7.00;99.90
1702;DHT22;848;48.354;10.064;2023-12-14T07:54:56;7.10;99.90
1702;DHT22;848;48.354;10.064;2023-12-14T07:57:24;7.10;99.90
1702;DHT22;848;48.354;10.064;2023-12-14T07:59:51;7.10;99.90
1702;DHT22;848;48.354;10.064;2023-12-14T08:02:18;7.10;99.90
1702;DHT22;848;48.354;10.064;2023-12-14T08:04:45;6.60;99.90
1702;DHT22;848;48.354;10.064;2023-12-14T08:07:11;7.10;99.90
1702;DHT22;848;48.354;10.064;2023-12-14T08:09:38;7.20;99.90
1702;DHT22;848;48.354;10.064;2023-12-14T08:12:06;7.20;99.90
1702;DHT22;848;48.354;10.064;2023-12-14T08:14:35;7.20;99.90
1702;DHT22;848;48.354;10.064;2023-12-14T08:17:03;7.20;99.90
1702;DHT22;848;48.354;10.064;2023-12-14T08:19:30;7.30;99.90
1702;DHT22;848;48.354;10.064;2023-12-14T08:21:57;7.30;99.90
1702;DHT22;848;48.354;10.064;2023-12-14T08:24:24;7.20;99.90
1702;DHT22;848;48.354;10.064;2023-12-14T08:26:51;7.20;99.90
1702;DHT22;848;48.354;10.064;2023-12-14T08:29:18;7.20;99.90
1702;DHT22;848;48.354;10.064;2023-12-14T08:31:46;7.20;99.90
1702;DHT22;848;48.354;10.064;2023-12-14T08:34:13;7.20;99.90
1702;DHT22;848;48.354;10.064;2023-12-14T08:36:40;7.20;99.90
1702;DHT22;848;48.354;10.064;2023-12-14T08:39:07;7.30;99.90
1702;DHT22;848;48.354;10.064;2023-12-14T08:41:33;7.10;99.90
1702;DHT22;848;48.354;10.064;2023-12-14T08:44:00;7.10;99.90
1702;DHT22;848;48.354;10.064;2023-12-14T08:46:27;7.10;99.90
1702;DHT22;848;48.354;10.064;2023-12-14T08:48:55;7.10;99.90
1702;DHT22;848;48.354;10.064;2023-12-14T08:51:22;7.10;99.90
1702;DHT22;848;48.354;10.064;2023-12-14T08:53:51;7.10;99.90
1702;DHT22;848;48.354;10.064;2023-12-14T08:56:18;7.00;99.90
1702;DHT22;848;48.354;10.064;2023-12-14T08:58:45;6.80;99.90
1702;DHT22;848;48.354;10.064;2023-12-14T09:01:17;6.80;99.90
1702;DHT22;848;48.354;10.064;2023-12-14T09:03:45;6.80;99.90
1702;DHT22;848;48.354;10.064;2023-12-14T09:06:13;6.80;99.90
1702;DHT22;848;48.354;10.064;2023-12-14T09:08:40;6.90;99.90
1702;DHT22;848;48.354;10.064;2023-12-14T09:11:07;6.90;99.90
1702;DHT22;848;48.354;10.064;2023-12-14T09:13:34;6.90;99.90
1702;DHT22;848;48.354;10.064;2023-12-14T09:16:01;7.00;99.90
1702;DHT22;848;48.354;10.064;2023-12-14T09:18:28;7.10;99.90
1702;DHT22;848;48.354;10.064;2023-12-14T09:20:54;7.10;99.90
1702;DHT22;848;48.354;10.064;2023-12-14T09:23:23;7.10;99.90
1702;DHT22;848;48.354;10.064;2023-12-14T09:25:49;7.10;99.90
1702;DHT22;848;48.354;10.064;2023-12-14T09:28:16;7.20;99.90
1702;DHT22;848;48.354;10.064;2023-12-14T09:30:43;7.20;99.90
1702;DHT22;848;48.354;10.064;2023-12-14T09:33:11;7.20;99.90
1702;DHT22;848;48.354;10.064;2023-12-14T09:35:38;7.20;99.90
1702;DHT22;848;48.354;10.064;2023-12-14T09:38:06;7.20;99.90
1702;DHT22;848;48.354;10.064;2023-12-14T09:40:34;7.20;99.90
1702;DHT22;848;48.354;10.064;2023-12-14T09:43:01;7.20;99.90
1702;DHT22;848;48.354;10.064;2023-12-14T09:45:29;7.30;99.90
1702;DHT22;848;48.354;10.064;2023-12-14T09:47:57;7.40;99.90
1702;DHT22;848;48.354;10.064;2023-12-14T09:50:24;7.40;99.90
1702;DHT22;848;48.354;10.064;2023-12-14T09:52:51;7.40;99.90
1702;DHT22;848;48.354;10.064;2023-12-14T09:55:18;7.50;99.90
1702;DHT22;848;48.354;10.064;2023-12-14T09:57:46;7.60;99.90
1702;DHT22;848;48.354;10.064;2023-12-14T10:00:32;7.60;99.90
1702;DHT22;848;48.354;10.064;2023-12-14T10:03:17;7.60;99.90
1702;DHT22;848;48.354;10.064;2023-12-14T10:05:45;7.60;99.90
1702;DHT22;848;48.354;10.064;2023-12-14T10:08:12;7.60;99.90
1702;DHT22;848;48.354;10.064;2023-12-14T10:10:39;7.60;99.90
1702;DHT22;848;48.354;10.064;2023-12-14T10:13:07;7.60;99.90
1702;DHT22;848;48.354;10.064;2023-12-14T10:15:41;7.70;99.90
1702;DHT22;848;48.354;10.064;2023-12-14T10:18:08;7.50;99.90
1702;DHT22;848;48.354;10.064;2023-12-14T10:20:35;7.60;99.90
1702;DHT22;848;48.354;10.064;2023-12-14T10:23:03;7.50;99.90
1702;DHT22;848;48.354;10.064;2023-12-14T10:25:30;7.60;99.90
1702;DHT22;848;48.354;10.064;2023-12-14T10:27:57;7.50;99.90
1702;DHT22;848;48.354;10.064;2023-12-14T10:30:27;7.60;99.90
1702;DHT22;848;48.354;10.064;2023-12-14T10:32:54;7.60;99.90
1702;DHT22;848;48.354;10.064;2023-12-14T10:35:21;7.60;99.90
1702;DHT22;848;48.354;10.064;2023-12-14T10:37:50;7.70;99.90
1702;DHT22;848;48.354;10.064;2023-12-14T10:40:18;7.70;99.90
1702;DHT22;848;48.354;10.064;2023-12-14T10:42:46;7.70;99.90
1702;DHT22;848;48.354;10.064;2023-12-14T10:45:14;7.60;99.90
1702;DHT22;848;48.354;10.064;2023-12-14T10:47:45;7.60;99.90
1702;DHT22;848;48.354;10.064;2023-12-14T10:50:12;7.70;99.90
1702;DHT22;848;48.354;10.064;2023-12-14T10:52:39;7.70;99.90
1702;DHT22;848;48.354;10.064;2023-12-14T10:55:09;7.80;99.90
1702;DHT22;848;48.354;10.064;2023-12-14T10:57:38;7.80;99.90
1702;DHT22;848;48.354;10.064;2023-12-14T11:00:06;7.90;99.90
1702;DHT22;848;48.354;10.064;2023-12-14T11:02:40;7.90;99.90
1702;DHT22;848;48.354;10.064;2023-12-14T11:05:13;8.00;99.90
1702;DHT22;848;48.354;10.064;2023-12-14T11:07:46;8.10;99.90
1702;DHT22;848;48.354;10.064;2023-12-14T11:10:13;8.10;99.90
1702;DHT22;848;48.354;10.064;2023-12-14T11:12:51;8.10;99.90
1702;DHT22;848;48.354;10.064;2023-12-14T11:15:18;8.10;99.90
1702;DHT22;848;48.354;10.064;2023-12-14T11:20:51;8.10;99.90
1702;DHT22;848;48.354;10.064;2023-12-14T11:23:31;8.10;99.90
1702;DHT22;848;48.354;10.064;2023-12-14T11:25:59;8.10;99.90
1702;DHT22;848;48.354;10.064;2023-12-14T11:28:29;8.00;99.90
1702;DHT22;848;48.354;10.064;2023-12-14T11:30:56;8.30;99.90
1702;DHT22;848;48.354;10.064;2023-12-14T11:33:23;8.10;99.90
1702;DHT22;848;48.354;10.064;2023-12-14T11:35:51;8.10;99.90
1702;DHT22;848;48.354;10.064;2023-12-14T11:38:19;8.20;99.90
1702;DHT22;848;48.354;10.064;2023-12-14T11:40:47;8.20;99.90
1702;DHT22;848;48.354;10.064;2023-12-14T11:43:14;8.30;99.90
1702;DHT22;848;48.354;10.064;2023-12-14T11:45:41;8.20;99.90
1702;DHT22;848;48.354;10.064;2023-12-14T11:48:10;8.30;99.90
1702;DHT22;848;48.354;10.064;2023-12-14T11:50:38;8.30;99.90
1702;DHT22;848;48.354;10.064;2023-12-14T11:53:07;8.20;99.90
1702;DHT22;848;48.354;10.064;2023-12-14T11:55:35;8.30;99.90
1702;DHT22;848;48.354;10.064;2023-12-14T11:58:03;8.10;99.90
1702;DHT22;848;48.354;10.064;2023-12-14T12:00:30;8.30;99.90
1702;DHT22;848;48.354;10.064;2023-12-14T12:03:08;8.20;99.90
1702;DHT22;848;48.354;10.064;2023-12-14T12:05:36;8.20;99.90
1702;DHT22;848;48.354;10.064;2023-12-14T12:08:03;8.20;99.90
1702;DHT22;848;48.354;10.064;2023-12-14T12:10:32;8.30;99.90
1702;DHT22;848;48.354;10.064;2023-12-14T12:13:00;8.30;99.90
1702;DHT22;848;48.354;10.064;2023-12-14T12:15:27;8.30;99.90
1702;DHT22;848;48.354;10.064;2023-12-14T12:17:54;8.30;99.90
1702;DHT22;848;48.354;10.064;2023-12-14T12:20:21;8.30;99.90
1702;DHT22;848;48.354;10.064;2023-12-14T12:22:47;8.30;99.90
1702;DHT22;848;48.354;10.064;2023-12-14T12:25:14;8.40;99.90
1702;DHT22;848;48.354;10.064;2023-12-14T12:27:42;8.30;99.90
1702;DHT22;848;48.354;10.064;2023-12-14T12:30:10;8.30;99.90
1702;DHT22;848;48.354;10.064;2023-12-14T12:32:37;8.20;99.90
1702;DHT22;848;48.354;10.064;2023-12-14T12:35:05;8.30;99.90
1702;DHT22;848;48.354;10.064;2023-12-14T12:37:32;8.40;99.90
1702;DHT22;848;48.354;10.064;2023-12-14T12:39:59;8.40;99.90
1702;DHT22;848;48.354;10.064;2023-12-14T12:42:26;8.50;99.90
1702;DHT22;848;48.354;10.064;2023-12-14T12:44:56;8.50;99.90
1702;DHT22;848;48.354;10.064;2023-12-14T12:47:23;8.60;99.90
1702;DHT22;848;48.354;10.064;2023-12-14T12:49:50;8.60;99.90
1702;DHT22;848;48.354;10.064;2023-12-14T12:52:17;8.60;99.90
1702;DHT22;848;48.354;10.064;2023-12-14T12:54:44;8.70;99.90
1702;DHT22;848;48.354;10.064;2023-12-14T12:57:11;8.90;99.90
1702;DHT22;848;48.354;10.064;2023-12-14T12:59:37;8.80;99.90
1702;DHT22;848;48.354;10.064;2023-12-14T13:02:07;8.80;99.90
1702;DHT22;848;48.354;10.064;2023-12-14T13:04:33;8.80;99.90
1702;DHT22;848;48.354;10.064;2023-12-14T13:07:02;8.60;99.90
1702;DHT22;848;48.354;10.064;2023-12-14T13:09:29;8.60;99.90
1702;DHT22;848;48.354;10.064;2023-12-14T13:11:56;8.70;99.90
1702;DHT22;848;48.354;10.064;2023-12-14T13:14:23;8.60;99.90
1702;DHT22;848;48.354;10.064;2023-12-14T13:16:50;8.50;99.90
1702;DHT22;848;48.354;10.064;2023-12-14T13:19:18;8.50;99.90
1702;DHT22;848;48.354;10.064;2023-12-14T13:21:45;8.40;99.90
1702;DHT22;848;48.354;10.064;2023-12-14T13:24:12;8.50;99.90
1702;DHT22;848;48.354;10.064;2023-12-14T13:26:39;8.40;99.90
1702;DHT22;848;48.354;10.064;2023-12-14T13:29:06;8.40;99.90
1702;DHT22;848;48.354;10.064;2023-12-14T13:31:33;8.40;99.90
1702;DHT22;848;48.354;10.064;2023-12-14T13:34:00;8.30;99.90
1702;DHT22;848;48.354;10.064;2023-12-14T13:36:28;8.30;99.90
1702;DHT22;848;48.354;10.064;2023-12-14T13:38:55;8.30;99.90
1702;DHT22;848;48.354;10.064;2023-12-14T13:41:22;8.50;99.90
1702;DHT22;848;48.354;10.064;2023-12-14T13:43:49;8.50;99.90
1702;DHT22;848;48.354;10.064;2023-12-14T13:46:17;8.50;99.90
1702;DHT22;848;48.354;10.064;2023-12-14T13:48:44;8.50;99.90
1702;DHT22;848;48.354;10.064;2023-12-14T13:51:11;8.50;99.90
1702;DHT22;848;48.354;10.064;2023-12-14T13:53:39;8.60;99.90
1702;DHT22;848;48.354;10.064;2023-12-14T13:56:06;8.50;99.90
1702;DHT22;848;48.354;10.064;2023-12-14T13:58:33;8.50;99.90
1702;DHT22;848;48.354;10.064;2023-12-14T14:01:04;8.50;99.90
1702;DHT22;848;48.354;10.064;2023-12-14T14:03:32;8.50;99.90
1702;DHT22;848;48.354;10.064;2023-12-14T14:05:59;8.50;99.90
1702;DHT22;848;48.354;10.064;2023-12-14T14:08:27;8.50;99.90
1702;DHT22;848;48.354;10.064;2023-12-14T14:10:58;8.50;99.90
1702;DHT22;848;48.354;10.064;2023-12-14T14:13:26;8.50;99.90
1702;DHT22;848;48.354;10.064;2023-12-14T14:15:52;8.50;99.90
1702;DHT22;848;48.354;10.064;2023-12-14T14:18:20;8.50;99.90
1702;DHT22;848;48.354;10.064;2023-12-14T14:20:47;8.50;99.90
1702;DHT22;848;48.354;10.064;2023-12-14T14:23:14;8.50;99.90
1702;DHT22;848;48.354;10.064;2023-12-14T14:25:41;8.50;99.90
1702;DHT22;848;48.354;10.064;2023-12-14T14:28:09;8.50;99.90
1702;DHT22;848;48.354;10.064;2023-12-14T14:30:36;8.50;99.90
1702;DHT22;848;48.354;10.064;2023-12-14T14:33:03;8.50;99.90
1702;DHT22;848;48.354;10.064;2023-12-14T14:35:30;8.50;99.90
1702;DHT22;848;48.354;10.064;2023-12-14T14:37:59;8.30;99.90
1702;DHT22;848;48.354;10.064;2023-12-14T14:40:26;8.20;99.90
1702;DHT22;848;48.354;10.064;2023-12-14T14:42:53;8.10;99.90
1702;DHT22;848;48.354;10.064;2023-12-14T14:45:21;8.20;99.90
1702;DHT22;848;48.354;10.064;2023-12-14T14:47:48;8.00;99.90
1702;DHT22;848;48.354;10.064;2023-12-14T14:50:15;8.00;99.90
1702;DHT22;848;48.354;10.064;2023-12-14T14:52:42;7.90;99.90
1702;DHT22;848;48.354;10.064;2023-12-14T14:55:09;7.80;99.90
1702;DHT22;848;48.354;10.064;2023-12-14T14:57:36;7.80;99.90
1702;DHT22;848;48.354;10.064;2023-12-14T15:00:03;7.80;99.90
1702;DHT22;848;48.354;10.064;2023-12-14T15:02:33;7.70;99.90
1702;DHT22;848;48.354;10.064;2023-12-14T15:04:59;7.70;99.90
1702;DHT22;848;48.354;10.064;2023-12-14T15:07:26;7.60;99.90
1702;DHT22;848;48.354;10.064;2023-12-14T15:09:54;7.50;99.90
1702;DHT22;848;48.354;10.064;2023-12-14T15:12:21;7.60;99.90
1702;DHT22;848;48.354;10.064;2023-12-14T15:14:48;7.50;99.90
1702;DHT22;848;48.354;10.064;2023-12-14T15:17:14;7.60;99.90
1702;DHT22;848;48.354;10.064;2023-12-14T15:19:45;7.50;99.90
1702;DHT22;848;48.354;10.064;2023-12-14T15:22:12;7.50;99.90
1702;DHT22;848;48.354;10.064;2023-12-14T15:24:39;7.50;99.90
1702;DHT22;848;48.354;10.064;2023-12-14T15:27:06;7.50;99.90
1702;DHT22;848;48.354;10.064;2023-12-14T15:29:33;7.60;99.90
1702;DHT22;848;48.354;10.064;2023-12-14T15:32:00;7.60;99.90
1702;DHT22;848;48.354;10.064;2023-12-14T15:34:28;7.60;99.90
1702;DHT22;848;48.354;10.064;2023-12-14T15:36:56;7.60;99.90
1702;DHT22;848;48.354;10.064;2023-12-14T15:39:23;7.60;99.90
1702;DHT22;848;48.354;10.064;2023-12-14T15:41:50;7.70;99.90
1702;DHT22;848;48.354;10.064;2023-12-14T15:44:17;7.70;99.90
1702;DHT22;848;48.354;10.064;2023-12-14T15:46:45;7.80;99.90
1702;DHT22;848;48.354;10.064;2023-12-14T15:49:12;7.80;99.90
1702;DHT22;848;48.354;10.064;2023-12-14T15:51:39;7.80;99.90
1702;DHT22;848;48.354;10.064;2023-12-14T15:54:08;7.70;99.90
1702;DHT22;848;48.354;10.064;2023-12-14T15:56:35;7.60;99.90
1702;DHT22;848;48.354;10.064;2023-12-14T15:59:01;7.60;99.90
1702;DHT22;848;48.354;10.064;2023-12-14T16:01:29;7.50;99.90
1702;DHT22;848;48.354;10.064;2023-12-14T16:03:56;7.40;99.90
1702;DHT22;848;48.354;10.064;2023-12-14T16:06:23;7.40;99.90
1702;DHT22;848;48.354;10.064;2023-12-14T16:08:50;7.50;99.90
1702;DHT22;848;48.354;10.064;2023-12-14T16:11:18;7.50;99.90
1702;DHT22;848;48.354;10.064;2023-12-14T16:13:45;7.50;99.90
1702;DHT22;848;48.354;10.064;2023-12-14T16:16:12;7.60;99.90
1702;DHT22;848;48.354;10.064;2023-12-14T16:18:39;7.50;99.90
1702;DHT22;848;48.354;10.064;2023-12-14T16:21:06;7.40;99.90